Time;durP1;ratioP1;P1;durP2;ratioP2;P2;SDS_P1;SDS_P2;PMS_P1;PMS_P2;Temp;Humidity;BMP_temperature;BMP_pressure;BME280_temperature;BME280_humidity;BME280_pressure;Samples;Min_cycle;Max_cycle;Signal;HPM_P1;HPM_P2
2023/09/07 00:01:18;;;;;;;4.70;3.55;;;;;;;;;;5014971;28;20249;-69
2023/09/07 00:03:44;;;;;;;4.90;4.30;;;;;;;;;;5014099;28;20183;-69
2023/09/07 00:06:09;;;;;;;4.55;3.90;;;;;;;;;;5014051;28;20195;-69
2023/09/07 00:08:34;;;;;;;4.78;3.85;;;;;;;;;;5015115;28;20229;-69
2023/09/07 00:11:06;;;;;;;6.15;4.30;;;;;;;;;;5013378;28;20569;-69
2023/09/07 00:13:31;;;;;;;5.57;4.90;;;;;;;;;;5011347;28;20760;-69
2023/09/07 00:16:02;;;;;;;5.75;4.40;;;;;;;;;;5011756;28;20290;-70
2023/09/07 00:18:28;;;;;;;7.05;5.28;;;;;;;;;;5014809;28;20586;-69
2023/09/07 00:20:53;;;;;;;9.65;4.88;;;;;;;;;;5009462;28;20179;-69
2023/09/07 00:23:19;;;;;;;7.65;4.53;;;;;;;;;;5003614;28;20780;-69
2023/09/07 00:25:45;;;;;;;5.85;5.03;;;;;;;;;;5012254;28;20175;-70
2023/09/07 00:28:11;;;;;;;9.00;5.03;;;;;;;;;;5011450;28;20664;-70
2023/09/07 00:30:36;;;;;;;8.82;5.38;;;;;;;;;;5011973;28;20179;-68
2023/09/07 00:33:02;;;;;;;7.03;5.28;;;;;;;;;;5012924;28;20199;-68
2023/09/07 00:35:27;;;;;;;8.00;5.85;;;;;;;;;;5014639;28;20179;-69
2023/09/07 00:37:52;;;;;;;5.65;5.15;;;;;;;;;;5010949;28;20206;-69
2023/09/07 00:40:17;;;;;;;6.65;4.90;;;;;;;;;;5003637;28;20195;-69
2023/09/07 00:42:42;;;;;;;7.57;5.38;;;;;;;;;;5008669;28;20191;-69
2023/09/07 00:45:08;;;;;;;6.95;5.28;;;;;;;;;;5007953;28;21062;-69
2023/09/07 00:47:34;;;;;;;8.40;6.75;;;;;;;;;;5012301;28;20257;-69
2023/09/07 00:50:00;;;;;;;10.15;6.07;;;;;;;;;;5005670;28;20179;-68
2023/09/07 00:52:25;;;;;;;7.72;5.75;;;;;;;;;;5013729;28;20605;-69
2023/09/07 00:54:50;;;;;;;7.95;5.88;;;;;;;;;;5012995;28;20188;-69
2023/09/07 00:57:15;;;;;;;7.63;5.30;;;;;;;;;;5012556;28;20214;-69
2023/09/07 00:59:40;;;;;;;7.47;6.13;;;;;;;;;;5013294;28;20692;-69
2023/09/07 01:02:06;;;;;;;7.50;6.25;;;;;;;;;;5010505;28;20183;-69
2023/09/07 01:04:32;;;;;;;11.30;6.63;;;;;;;;;;5015166;28;20205;-70
2023/09/07 01:07:01;;;;;;;7.40;6.28;;;;;;;;;;5007811;28;20199;-70
2023/09/07 01:12:30;;;;;;;6.68;5.85;;;;;;;;;;5003951;28;20178;-69
2023/09/07 01:14:55;;;;;;;11.02;6.63;;;;;;;;;;5003032;28;20175;-69
2023/09/07 01:17:24;;;;;;;9.63;6.72;;;;;;;;;;5007711;28;20218;-69
2023/09/07 01:19:50;;;;;;;10.40;7.82;;;;;;;;;;5005782;28;20190;-68
2023/09/07 01:22:16;;;;;;;11.32;6.72;;;;;;;;;;5011055;28;20191;-69
2023/09/07 01:24:42;;;;;;;12.63;7.65;;;;;;;;;;5008207;28;20213;-69
2023/09/07 01:27:07;;;;;;;9.95;7.13;;;;;;;;;;5010543;28;20296;-69
2023/09/07 01:29:33;;;;;;;11.57;8.00;;;;;;;;;;5012714;28;20259;-69
2023/09/07 01:31:58;;;;;;;10.07;7.68;;;;;;;;;;5013110;28;20660;-69
2023/09/07 01:34:24;;;;;;;8.98;7.93;;;;;;;;;;5013012;28;20164;-70
2023/09/07 01:36:49;;;;;;;10.45;7.97;;;;;;;;;;5013502;28;20560;-69
2023/09/07 01:39:16;;;;;;;11.02;7.88;;;;;;;;;;5009753;28;21833;-70
2023/09/07 01:41:41;;;;;;;9.68;7.88;;;;;;;;;;5010360;28;20198;-70
2023/09/07 01:44:07;;;;;;;13.48;8.18;;;;;;;;;;5011146;28;20191;-69
2023/09/07 01:46:32;;;;;;;9.23;7.63;;;;;;;;;;5012210;28;20178;-69
2023/09/07 01:48:57;;;;;;;13.13;7.72;;;;;;;;;;5007239;28;20290;-69
2023/09/07 01:51:22;;;;;;;10.00;8.48;;;;;;;;;;5007504;28;20175;-68
2023/09/07 01:53:48;;;;;;;9.20;8.05;;;;;;;;;;5009955;28;20211;-69
2023/09/07 01:56:14;;;;;;;9.68;8.27;;;;;;;;;;5016909;28;20183;-70
2023/09/07 01:58:40;;;;;;;17.20;8.48;;;;;;;;;;5014269;28;20699;-69
2023/09/07 02:01:06;;;;;;;13.25;8.23;;;;;;;;;;5012118;28;20194;-70
2023/09/07 02:03:31;;;;;;;9.07;7.65;;;;;;;;;;5015515;28;20175;-69
2023/09/07 02:05:56;;;;;;;10.65;8.68;;;;;;;;;;5016719;28;20187;-68
2023/09/07 02:08:21;;;;;;;9.50;7.85;;;;;;;;;;5013796;28;20209;-69
2023/09/07 02:10:47;;;;;;;9.70;7.50;;;;;;;;;;5014475;28;20178;-70
2023/09/07 02:13:12;;;;;;;12.20;7.95;;;;;;;;;;5012185;28;20190;-70
2023/09/07 02:15:38;;;;;;;8.50;7.60;;;;;;;;;;5007678;28;20194;-69
2023/09/07 02:18:04;;;;;;;8.20;7.05;;;;;;;;;;5013865;28;20199;-70
2023/09/07 02:20:29;;;;;;;13.25;8.32;;;;;;;;;;5015276;28;20425;-71
2023/09/07 02:22:55;;;;;;;10.45;7.93;;;;;;;;;;5012606;28;20645;-68
2023/09/07 02:25:20;;;;;;;10.98;8.18;;;;;;;;;;5006853;28;20214;-69
2023/09/07 02:27:45;;;;;;;11.00;8.35;;;;;;;;;;5011778;28;20214;-69
2023/09/07 02:30:11;;;;;;;10.80;8.05;;;;;;;;;;5002494;28;20269;-69
2023/09/07 02:32:36;;;;;;;10.75;8.18;;;;;;;;;;5011335;28;20171;-69
2023/09/07 02:35:01;;;;;;;13.15;8.35;;;;;;;;;;5006559;28;20179;-69
2023/09/07 02:37:27;;;;;;;11.57;8.07;;;;;;;;;;5008207;28;20253;-69
2023/09/07 02:39:52;;;;;;;10.60;7.78;;;;;;;;;;5009526;28;20557;-68
2023/09/07 02:42:17;;;;;;;11.90;8.40;;;;;;;;;;5007807;28;20273;-68
2023/09/07 02:44:42;;;;;;;11.93;8.35;;;;;;;;;;5011317;28;20269;-69
2023/09/07 02:47:07;;;;;;;10.65;9.15;;;;;;;;;;5011315;28;20297;-69
2023/09/07 02:49:33;;;;;;;14.73;8.10;;;;;;;;;;5004933;28;20308;-69
2023/09/07 02:51:58;;;;;;;12.85;9.95;;;;;;;;;;5004678;28;20179;-69
2023/09/07 02:54:23;;;;;;;11.45;8.20;;;;;;;;;;5005569;28;20179;-69
2023/09/07 02:56:49;;;;;;;12.25;8.15;;;;;;;;;;5010781;28;20648;-69
2023/09/07 02:59:14;;;;;;;12.77;9.50;;;;;;;;;;5011360;28;20185;-69
2023/09/07 03:01:39;;;;;;;11.73;9.05;;;;;;;;;;5012375;28;20174;-69
2023/09/07 03:04:05;;;;;;;13.38;8.85;;;;;;;;;;5010777;28;20166;-70
2023/09/07 03:06:30;;;;;;;12.07;10.18;;;;;;;;;;5012744;28;20177;-70
2023/09/07 03:08:56;;;;;;;13.07;9.95;;;;;;;;;;5004941;28;20214;-70
2023/09/07 03:11:22;;;;;;;13.15;10.68;;;;;;;;;;5002616;28;20175;-69
2023/09/07 03:13:47;;;;;;;13.15;10.15;;;;;;;;;;5006883;28;20211;-70
2023/09/07 03:16:12;;;;;;;13.57;9.77;;;;;;;;;;5008635;28;20735;-69
2023/09/07 03:18:37;;;;;;;15.33;10.67;;;;;;;;;;5010110;28;20203;-68
2023/09/07 03:21:03;;;;;;;14.05;9.55;;;;;;;;;;5010382;28;20511;-69
2023/09/07 03:23:28;;;;;;;14.93;9.65;;;;;;;;;;5007577;28;20179;-68
2023/09/07 03:25:54;;;;;;;14.18;10.13;;;;;;;;;;5015235;28;20679;-69
2023/09/07 03:28:19;;;;;;;11.63;9.60;;;;;;;;;;5014353;28;20217;-70
2023/09/07 03:30:44;;;;;;;14.65;10.55;;;;;;;;;;5013652;28;20190;-69
2023/09/07 03:33:09;;;;;;;14.77;10.25;;;;;;;;;;5011253;28;20714;-69
2023/09/07 03:35:35;;;;;;;14.18;9.38;;;;;;;;;;5013950;28;20229;-70
2023/09/07 03:38:00;;;;;;;12.85;10.52;;;;;;;;;;5013419;28;20230;-70
2023/09/07 03:40:26;;;;;;;13.10;9.77;;;;;;;;;;5011552;28;20632;-69
2023/09/07 03:42:51;;;;;;;12.73;8.63;;;;;;;;;;5013328;28;20676;-69
2023/09/07 03:45:17;;;;;;;11.43;9.02;;;;;;;;;;5004617;28;20195;-68
2023/09/07 03:47:42;;;;;;;11.55;8.48;;;;;;;;;;5013230;28;20680;-69
2023/09/07 03:50:08;;;;;;;12.43;8.68;;;;;;;;;;5009374;28;20661;-68
2023/09/07 03:52:33;;;;;;;12.02;8.93;;;;;;;;;;5014580;28;20189;-68
2023/09/07 03:54:59;;;;;;;12.27;9.05;;;;;;;;;;5015107;28;20652;-69
2023/09/07 03:57:25;;;;;;;12.02;8.32;;;;;;;;;;5015261;28;20203;-69
2023/09/07 03:59:50;;;;;;;13.40;8.88;;;;;;;;;;5012877;28;20189;-69
2023/09/07 04:02:17;;;;;;;13.38;8.45;;;;;;;;;;5005099;28;20186;-69
2023/09/07 04:04:42;;;;;;;12.98;8.35;;;;;;;;;;5008613;28;20653;-69
2023/09/07 04:07:07;;;;;;;10.82;8.95;;;;;;;;;;5009399;28;20206;-69
2023/09/07 04:09:33;;;;;;;9.65;8.63;;;;;;;;;;5011246;28;20642;-69
2023/09/07 04:11:58;;;;;;;13.50;8.73;;;;;;;;;;5013913;28;20229;-69
2023/09/07 04:14:23;;;;;;;11.23;9.38;;;;;;;;;;5013217;28;20539;-69
2023/09/07 04:16:50;;;;;;;10.38;9.20;;;;;;;;;;5006591;28;20602;-69
2023/09/07 04:19:15;;;;;;;13.00;10.32;;;;;;;;;;5004666;28;20648;-69
2023/09/07 04:21:40;;;;;;;13.30;9.43;;;;;;;;;;5013085;28;20187;-69
2023/09/07 04:24:06;;;;;;;11.63;9.73;;;;;;;;;;5004523;28;20237;-69
2023/09/07 04:26:31;;;;;;;13.05;9.52;;;;;;;;;;5010317;28;20183;-69
2023/09/07 04:28:56;;;;;;;12.48;9.30;;;;;;;;;;5011887;28;21590;-68
2023/09/07 04:31:22;;;;;;;13.93;9.07;;;;;;;;;;5011756;28;20207;-69
2023/09/07 04:33:47;;;;;;;12.43;10.07;;;;;;;;;;5013128;28;20619;-69
2023/09/07 04:36:15;;;;;;;11.38;9.73;;;;;;;;;;5013686;28;20665;-69
2023/09/07 04:38:41;;;;;;;9.85;8.35;;;;;;;;;;5011861;28;20214;-70
2023/09/07 04:41:10;;;;;;;12.02;9.32;;;;;;;;;;5007084;28;20168;-70
2023/09/07 04:43:36;;;;;;;12.35;9.35;;;;;;;;;;5012580;28;20693;-70
2023/09/07 04:46:01;;;;;;;13.40;9.75;;;;;;;;;;5009805;28;20279;-70
2023/09/07 04:48:27;;;;;;;9.65;8.45;;;;;;;;;;5010024;28;20210;-69
2023/09/07 04:51:01;;;;;;;18.98;9.50;;;;;;;;;;5008953;28;20704;-70
2023/09/07 04:53:28;;;;;;;13.43;9.30;;;;;;;;;;5016871;28;20177;-70
2023/09/07 04:55:53;;;;;;;11.63;9.27;;;;;;;;;;5011706;28;20206;-70
2023/09/07 04:58:19;;;;;;;14.02;9.52;;;;;;;;;;5007265;28;20655;-70
2023/09/07 05:00:44;;;;;;;17.35;11.20;;;;;;;;;;5011697;28;20183;-70
2023/09/07 05:03:09;;;;;;;12.77;9.75;;;;;;;;;;5010952;28;20463;-71
2023/09/07 05:05:34;;;;;;;12.50;9.30;;;;;;;;;;5010780;28;20272;-69
2023/09/07 05:07:59;;;;;;;11.40;9.13;;;;;;;;;;5008401;28;20211;-69
2023/09/07 05:10:25;;;;;;;12.38;9.00;;;;;;;;;;5008452;28;20183;-69
2023/09/07 05:12:50;;;;;;;13.35;9.63;;;;;;;;;;5010771;28;20179;-70
2023/09/07 05:15:15;;;;;;;10.73;8.45;;;;;;;;;;5009295;28;20183;-69
2023/09/07 05:17:40;;;;;;;14.07;10.20;;;;;;;;;;5007548;28;20206;-70
2023/09/07 05:20:06;;;;;;;12.38;8.90;;;;;;;;;;5009765;28;20183;-69
2023/09/07 05:22:34;;;;;;;12.38;9.68;;;;;;;;;;5007877;28;20213;-70
2023/09/07 05:24:59;;;;;;;12.95;9.20;;;;;;;;;;5013116;28;20623;-70
2023/09/07 05:27:25;;;;;;;13.32;10.38;;;;;;;;;;5012558;28;20221;-70
2023/09/07 05:29:50;;;;;;;13.77;9.82;;;;;;;;;;5009186;28;20203;-69
2023/09/07 05:32:15;;;;;;;13.23;10.07;;;;;;;;;;5007394;28;20372;-69
2023/09/07 05:34:40;;;;;;;16.33;11.05;;;;;;;;;;5000020;28;20234;-69
2023/09/07 05:37:06;;;;;;;14.30;10.27;;;;;;;;;;5004016;28;20606;-70
2023/09/07 05:39:31;;;;;;;14.05;11.02;;;;;;;;;;5006294;28;20198;-70
2023/09/07 05:41:56;;;;;;;13.50;11.38;;;;;;;;;;5007174;28;20225;-70
2023/09/07 05:44:21;;;;;;;20.20;12.90;;;;;;;;;;5006356;28;20183;-70
2023/09/07 05:46:47;;;;;;;17.58;12.07;;;;;;;;;;5010191;28;20650;-69
2023/09/07 05:49:12;;;;;;;22.02;13.18;;;;;;;;;;5007003;28;20215;-70
2023/09/07 05:51:38;;;;;;;12.80;10.05;;;;;;;;;;5011972;28;20694;-70
2023/09/07 05:54:03;;;;;;;16.13;10.57;;;;;;;;;;5008586;28;20188;-70
2023/09/07 05:56:30;;;;;;;13.98;9.88;;;;;;;;;;5009446;28;20185;-70
2023/09/07 05:58:55;;;;;;;14.10;9.60;;;;;;;;;;5013235;28;20175;-70
2023/09/07 06:01:20;;;;;;;13.85;10.32;;;;;;;;;;5000558;28;20591;-69
2023/09/07 06:03:45;;;;;;;12.52;9.80;;;;;;;;;;5012829;28;20187;-69
2023/09/07 06:06:10;;;;;;;15.70;10.18;;;;;;;;;;5011605;28;20197;-68
2023/09/07 06:08:36;;;;;;;13.35;9.45;;;;;;;;;;5011836;28;20202;-68
2023/09/07 06:11:01;;;;;;;15.40;8.65;;;;;;;;;;5012285;28;20254;-70
2023/09/07 06:13:27;;;;;;;11.30;8.88;;;;;;;;;;5011808;28;20175;-70
2023/09/07 06:15:52;;;;;;;10.82;8.52;;;;;;;;;;5007651;28;20217;-70
2023/09/07 06:18:17;;;;;;;12.65;8.75;;;;;;;;;;5012674;28;20237;-70
2023/09/07 06:20:42;;;;;;;13.77;8.85;;;;;;;;;;5012709;28;20179;-70
2023/09/07 06:23:07;;;;;;;11.50;8.52;;;;;;;;;;5012337;28;20628;-70
2023/09/07 06:25:33;;;;;;;9.30;7.80;;;;;;;;;;5012118;28;20606;-69
2023/09/07 06:27:58;;;;;;;12.43;7.78;;;;;;;;;;5028294;23;20240;-67
2023/09/07 06:30:23;;;;;;;10.10;8.20;;;;;;;;;;5048845;28;20529;-66
2023/09/07 06:32:50;;;;;;;13.82;7.28;;;;;;;;;;5024670;28;20668;-67
2023/09/07 06:35:15;;;;;;;9.88;7.75;;;;;;;;;;5027708;28;20174;-65
2023/09/07 06:37:43;;;;;;;10.88;7.85;;;;;;;;;;5028348;28;20190;-66
2023/09/07 06:40:09;;;;;;;15.50;8.90;;;;;;;;;;5020113;28;20237;-66
2023/09/07 06:42:34;;;;;;;8.57;6.97;;;;;;;;;;5014511;28;20180;-66
2023/09/07 06:44:59;;;;;;;11.18;7.90;;;;;;;;;;5023044;28;20572;-66
2023/09/07 06:47:25;;;;;;;8.10;6.72;;;;;;;;;;5018918;28;20664;-67
2023/09/07 06:49:50;;;;;;;9.82;6.93;;;;;;;;;;5012285;28;20218;-65
2023/09/07 06:52:15;;;;;;;8.35;7.03;;;;;;;;;;5013988;28;20491;-65
2023/09/07 06:54:40;;;;;;;10.55;6.57;;;;;;;;;;5016115;28;20179;-65
2023/09/07 06:57:08;;;;;;;12.18;7.57;;;;;;;;;;5018067;28;20462;-69
2023/09/07 06:59:34;;;;;;;10.10;7.10;;;;;;;;;;5013581;28;20186;-69
2023/09/07 07:02:00;;;;;;;10.48;7.20;;;;;;;;;;5017151;28;20174;-68
2023/09/07 07:04:25;;;;;;;13.15;6.95;;;;;;;;;;5021182;28;20178;-69
2023/09/07 07:06:51;;;;;;;10.80;7.10;;;;;;;;;;5019172;28;20205;-69
2023/09/07 07:09:16;;;;;;;9.20;6.80;;;;;;;;;;5016159;28;20222;-69
2023/09/07 07:11:42;;;;;;;10.13;7.30;;;;;;;;;;5022862;28;20178;-68
2023/09/07 07:14:08;;;;;;;8.73;6.72;;;;;;;;;;5015889;28;20175;-67
2023/09/07 07:16:33;;;;;;;9.68;7.70;;;;;;;;;;5018067;28;20182;-68
2023/09/07 07:18:58;;;;;;;10.27;7.03;;;;;;;;;;5027037;28;20197;-68
2023/09/07 07:21:24;;;;;;;7.83;6.00;;;;;;;;;;5022241;28;20427;-67
2023/09/07 07:23:49;;;;;;;11.65;7.43;;;;;;;;;;5018333;28;20889;-68
2023/09/07 07:26:15;;;;;;;10.25;6.80;;;;;;;;;;5027156;28;20248;-68
2023/09/07 07:28:40;;;;;;;9.57;7.07;;;;;;;;;;5025537;28;20217;-67
2023/09/07 07:31:09;;;;;;;7.00;5.67;;;;;;;;;;5019100;28;20658;-68
2023/09/07 07:33:34;;;;;;;9.32;6.20;;;;;;;;;;5016556;28;20429;-68
2023/09/07 07:35:59;;;;;;;9.45;6.18;;;;;;;;;;5027358;28;20174;-68
2023/09/07 07:38:25;;;;;;;8.40;6.47;;;;;;;;;;5025836;28;20214;-68
2023/09/07 07:40:52;;;;;;;9.80;7.10;;;;;;;;;;5027130;28;20427;-68
2023/09/07 07:43:17;;;;;;;7.78;6.20;;;;;;;;;;5015373;28;20202;-68
2023/09/07 07:45:43;;;;;;;7.32;6.47;;;;;;;;;;5020832;28;20225;-68
2023/09/07 07:48:08;;;;;;;8.43;6.25;;;;;;;;;;5020488;28;20229;-68
2023/09/07 07:50:37;;;;;;;8.65;6.07;;;;;;;;;;5023018;28;20191;-68
2023/09/07 07:53:03;;;;;;;7.75;6.13;;;;;;;;;;5010726;28;20190;-68
2023/09/07 07:55:28;;;;;;;12.93;5.90;;;;;;;;;;5015667;28;20175;-69
2023/09/07 07:57:53;;;;;;;9.32;5.95;;;;;;;;;;5022942;28;20194;-69
2023/09/07 08:00:19;;;;;;;5.40;4.90;;;;;;;;;;5020086;28;20582;-68
2023/09/07 08:02:44;;;;;;;9.10;5.72;;;;;;;;;;5023520;28;20509;-67
2023/09/07 08:05:09;;;;;;;11.33;5.23;;;;;;;;;;5012466;28;20171;-69
2023/09/07 08:07:34;;;;;;;10.52;5.57;;;;;;;;;;5009153;28;20452;-68
2023/09/07 08:09:59;;;;;;;9.70;5.53;;;;;;;;;;5024408;28;20231;-68
2023/09/07 08:12:25;;;;;;;7.97;5.77;;;;;;;;;;5024307;28;20462;-68
2023/09/07 08:14:50;;;;;;;7.97;5.97;;;;;;;;;;5015267;28;20412;-68
2023/09/07 08:17:15;;;;;;;5.53;4.30;;;;;;;;;;5016960;28;20454;-67
2023/09/07 08:19:40;;;;;;;8.07;5.10;;;;;;;;;;5023696;28;20778;-67
2023/09/07 08:22:06;;;;;;;7.78;5.22;;;;;;;;;;5023559;28;20191;-68
2023/09/07 08:24:31;;;;;;;6.40;4.90;;;;;;;;;;5016910;28;20232;-68
2023/09/07 08:26:57;;;;;;;15.20;5.93;;;;;;;;;;5016685;28;20823;-69
2023/09/07 08:29:26;;;;;;;6.85;5.38;;;;;;;;;;5020508;28;20206;-68
2023/09/07 08:31:52;;;;;;;10.43;5.03;;;;;;;;;;5025491;28;20184;-68
2023/09/07 08:34:20;;;;;;;7.35;5.30;;;;;;;;;;5017147;28;20257;-69
2023/09/07 08:36:46;;;;;;;9.23;5.57;;;;;;;;;;5021896;28;20198;-69
2023/09/07 08:39:12;;;;;;;10.70;5.45;;;;;;;;;;5015457;28;20214;-68
2023/09/07 08:41:42;;;;;;;8.98;5.15;;;;;;;;;;5023097;28;22014;-69
2023/09/07 08:44:08;;;;;;;8.63;4.78;;;;;;;;;;5013554;28;20262;-69
2023/09/07 08:46:34;;;;;;;6.47;5.15;;;;;;;;;;5021945;28;20226;-69
2023/09/07 08:49:03;;;;;;;6.30;4.70;;;;;;;;;;5021323;28;20316;-68
2023/09/07 08:51:29;;;;;;;6.50;4.47;;;;;;;;;;5014696;28;20183;-68
2023/09/07 08:53:56;;;;;;;8.73;5.03;;;;;;;;;;5017308;28;20615;-69
2023/09/07 08:56:22;;;;;;;5.03;4.50;;;;;;;;;;5018038;28;20183;-69
2023/09/07 08:58:49;;;;;;;4.85;4.15;;;;;;;;;;5015761;28;20195;-69
2023/09/07 09:01:14;;;;;;;6.40;4.60;;;;;;;;;;5023554;28;20277;-69
2023/09/07 09:03:41;;;;;;;6.32;4.22;;;;;;;;;;5029691;28;20212;-68
2023/09/07 09:06:06;;;;;;;6.10;4.60;;;;;;;;;;5023994;28;20616;-69
2023/09/07 09:08:41;;;;;;;7.07;4.30;;;;;;;;;;5019423;28;20290;-69
2023/09/07 09:11:07;;;;;;;7.05;4.38;;;;;;;;;;5028497;28;20643;-68
2023/09/07 09:13:32;;;;;;;11.52;4.22;;;;;;;;;;5020955;28;20206;-67
2023/09/07 09:16:01;;;;;;;8.98;4.57;;;;;;;;;;5018169;28;20185;-68
2023/09/07 09:18:27;;;;;;;5.80;4.90;;;;;;;;;;5016687;28;20255;-68
2023/09/07 09:20:52;;;;;;;6.38;4.28;;;;;;;;;;5022119;28;20179;-68
2023/09/07 09:23:17;;;;;;;5.72;4.32;;;;;;;;;;5028045;28;20190;-68
2023/09/07 09:25:42;;;;;;;6.70;3.77;;;;;;;;;;5023546;28;20183;-67
2023/09/07 09:28:08;;;;;;;7.57;4.07;;;;;;;;;;5024801;28;20471;-68
2023/09/07 09:30:34;;;;;;;6.50;4.60;;;;;;;;;;5022353;28;20407;-68
2023/09/07 09:32:59;;;;;;;6.80;4.05;;;;;;;;;;5020295;28;20235;-67
2023/09/07 09:35:25;;;;;;;8.63;4.47;;;;;;;;;;5024144;28;20182;-68
2023/09/07 09:37:50;;;;;;;4.72;3.97;;;;;;;;;;5020636;28;20194;-68
2023/09/07 09:40:19;;;;;;;6.90;4.17;;;;;;;;;;5023454;28;20181;-68
2023/09/07 09:42:44;;;;;;;8.52;4.75;;;;;;;;;;5022892;28;20479;-67
2023/09/07 09:45:10;;;;;;;7.03;4.03;;;;;;;;;;5026801;28;20253;-68
2023/09/07 09:47:42;;;;;;;8.40;4.82;;;;;;;;;;5019050;28;20590;-67
2023/09/07 09:50:11;;;;;;;4.93;4.20;;;;;;;;;;5022269;28;20289;-68
2023/09/07 09:52:37;;;;;;;3.83;3.30;;;;;;;;;;5023409;28;20643;-68
2023/09/07 09:55:07;;;;;;;7.03;3.25;;;;;;;;;;5019987;28;20245;-69
2023/09/07 09:57:34;;;;;;;4.50;3.45;;;;;;;;;;5013578;28;20281;-69
2023/09/07 09:59:59;;;;;;;5.20;3.10;;;;;;;;;;5018472;28;20178;-68
2023/09/07 10:02:26;;;;;;;6.40;3.75;;;;;;;;;;5028110;28;20174;-68
2023/09/07 10:04:52;;;;;;;5.95;3.25;;;;;;;;;;5016187;28;20242;-68
2023/09/07 10:07:19;;;;;;;3.67;2.95;;;;;;;;;;5017326;28;20214;-68
2023/09/07 10:09:44;;;;;;;5.10;3.20;;;;;;;;;;5029692;28;20678;-69
2023/09/07 10:12:11;;;;;;;5.63;3.40;;;;;;;;;;5026625;28;20178;-68
2023/09/07 10:14:50;;;;;;;10.25;3.58;;;;;;;;;;5015511;28;20447;-69
2023/09/07 10:17:22;;;;;;;4.43;2.90;;;;;;;;;;5016168;28;20343;-69
2023/09/07 10:19:51;;;;;;;5.78;3.08;;;;;;;;;;5015280;28;20170;-69
2023/09/07 10:22:23;;;;;;;5.80;2.60;;;;;;;;;;5021452;28;20178;-69
2023/09/07 10:24:56;;;;;;;3.28;2.97;;;;;;;;;;5007275;28;20178;-69
2023/09/07 10:27:21;;;;;;;4.07;3.20;;;;;;;;;;5015801;28;20207;-68
2023/09/07 10:29:52;;;;;;;3.33;2.73;;;;;;;;;;5019661;28;20285;-68
2023/09/07 10:32:17;;;;;;;5.55;3.00;;;;;;;;;;5018824;28;20513;-69
2023/09/07 10:34:45;;;;;;;3.63;3.20;;;;;;;;;;5017116;28;20171;-68
2023/09/07 10:37:13;;;;;;;4.28;2.47;;;;;;;;;;5015390;28;20486;-68
2023/09/07 10:39:39;;;;;;;4.38;2.72;;;;;;;;;;5023946;28;20228;-69
2023/09/07 10:42:04;;;;;;;3.15;2.45;;;;;;;;;;5027983;28;20265;-68
2023/09/07 10:44:29;;;;;;;3.50;2.70;;;;;;;;;;5013373;28;20265;-68
2023/09/07 10:46:55;;;;;;;3.40;3.10;;;;;;;;;;5018702;28;20455;-68
2023/09/07 10:49:20;;;;;;;3.70;2.50;;;;;;;;;;5016173;28;20268;-68
2023/09/07 10:51:46;;;;;;;3.42;2.70;;;;;;;;;;5013334;28;20182;-67
2023/09/07 10:54:15;;;;;;;3.17;2.63;;;;;;;;;;5016215;28;20540;-69
2023/09/07 10:56:40;;;;;;;3.47;3.17;;;;;;;;;;5013039;28;20291;-70
2023/09/07 10:59:05;;;;;;;3.90;3.10;;;;;;;;;;5010627;28;20671;-69
2023/09/07 11:01:31;;;;;;;5.90;3.00;;;;;;;;;;5015944;28;20437;-69
2023/09/07 11:03:56;;;;;;;3.50;2.92;;;;;;;;;;5017440;28;20570;-69
2023/09/07 11:06:21;;;;;;;2.93;2.63;;;;;;;;;;5014681;28;20181;-67
2023/09/07 11:08:47;;;;;;;4.45;3.75;;;;;;;;;;5022986;28;20554;-69
2023/09/07 11:11:12;;;;;;;5.40;3.10;;;;;;;;;;5015041;28;20548;-69
2023/09/07 11:13:37;;;;;;;5.45;3.08;;;;;;;;;;5017462;28;20923;-70
2023/09/07 11:16:03;;;;;;;3.33;2.67;;;;;;;;;;5019456;28;20189;-67
2023/09/07 11:18:28;;;;;;;4.68;2.90;;;;;;;;;;5020287;28;20202;-68
2023/09/07 11:20:53;;;;;;;3.20;2.87;;;;;;;;;;5010258;28;20199;-70
2023/09/07 11:23:20;;;;;;;3.50;2.67;;;;;;;;;;5026230;28;20730;-69
2023/09/07 11:25:46;;;;;;;4.07;2.92;;;;;;;;;;5031044;28;20415;-69
2023/09/07 11:28:11;;;;;;;4.30;2.83;;;;;;;;;;5027343;28;20201;-68
2023/09/07 11:30:37;;;;;;;5.43;2.95;;;;;;;;;;5011764;28;20602;-68
2023/09/07 11:33:03;;;;;;;4.40;2.90;;;;;;;;;;5011528;28;20715;-67
2023/09/07 11:35:29;;;;;;;3.47;3.03;;;;;;;;;;5019793;28;20178;-68
2023/09/07 11:37:54;;;;;;;7.18;2.83;;;;;;;;;;5023739;28;20687;-69
2023/09/07 11:40:19;;;;;;;4.00;2.92;;;;;;;;;;5010337;28;20675;-69
2023/09/07 11:42:45;;;;;;;4.70;3.03;;;;;;;;;;5014104;28;20171;-69
2023/09/07 11:45:10;;;;;;;3.80;2.63;;;;;;;;;;5033604;28;20526;-69
2023/09/07 11:47:37;;;;;;;5.20;2.85;;;;;;;;;;5030459;28;20299;-69
2023/09/07 11:50:02;;;;;;;3.45;2.53;;;;;;;;;;5020423;28;20236;-69
2023/09/07 11:52:27;;;;;;;5.07;2.85;;;;;;;;;;5022610;28;20265;-69
2023/09/07 11:54:53;;;;;;;3.40;2.97;;;;;;;;;;5030564;28;20256;-68
2023/09/07 11:57:18;;;;;;;3.07;2.70;;;;;;;;;;5032496;28;20199;-68
2023/09/07 11:59:43;;;;;;;4.13;2.63;;;;;;;;;;5021724;28;20186;-68
2023/09/07 12:02:11;;;;;;;3.43;3.03;;;;;;;;;;5027458;28;20410;-67
2023/09/07 12:04:37;;;;;;;6.47;3.10;;;;;;;;;;5027927;28;20459;-67
2023/09/07 12:07:02;;;;;;;3.80;2.80;;;;;;;;;;5014632;28;20561;-69
2023/09/07 12:09:28;;;;;;;3.90;2.85;;;;;;;;;;5012762;28;20197;-68
2023/09/07 12:11:53;;;;;;;3.50;3.20;;;;;;;;;;5014738;28;20170;-68
2023/09/07 12:14:18;;;;;;;5.23;2.70;;;;;;;;;;5018131;28;20431;-69
2023/09/07 12:16:43;;;;;;;3.43;3.13;;;;;;;;;;5012729;28;20175;-69
2023/09/07 12:19:08;;;;;;;2.50;2.27;;;;;;;;;;5027625;28;20284;-68
2023/09/07 12:21:34;;;;;;;4.43;2.83;;;;;;;;;;5023102;28;20182;-68
2023/09/07 12:23:59;;;;;;;4.03;2.63;;;;;;;;;;5028288;28;20186;-68
2023/09/07 12:26:24;;;;;;;5.18;2.60;;;;;;;;;;5019770;28;20415;-69
2023/09/07 12:28:49;;;;;;;4.07;3.20;;;;;;;;;;5034180;23;20242;-71
2023/09/07 12:31:15;;;;;;;5.07;3.17;;;;;;;;;;5026089;28;20403;-71
2023/09/07 12:33:40;;;;;;;6.10;3.55;;;;;;;;;;5018165;28;20890;-72
2023/09/07 12:36:09;;;;;;;3.77;3.03;;;;;;;;;;5031525;28;20173;-72
2023/09/07 12:38:34;;;;;;;4.57;2.60;;;;;;;;;;5024364;28;20447;-73
2023/09/07 12:40:59;;;;;;;3.03;2.78;;;;;;;;;;5005529;28;20197;-71
2023/09/07 12:43:24;;;;;;;3.30;2.93;;;;;;;;;;5007952;28;20259;-72
2023/09/07 12:45:50;;;;;;;3.95;3.55;;;;;;;;;;5006473;28;20597;-72
2023/09/07 12:48:15;;;;;;;3.77;3.07;;;;;;;;;;5016130;28;20786;-72
2023/09/07 12:50:41;;;;;;;3.95;2.88;;;;;;;;;;5009884;28;20894;-72
2023/09/07 12:53:06;;;;;;;5.70;2.77;;;;;;;;;;5010513;28;20203;-72
2023/09/07 12:55:31;;;;;;;3.25;2.85;;;;;;;;;;5000216;28;20920;-72
2023/09/07 12:57:56;;;;;;;4.93;2.90;;;;;;;;;;5006303;28;20208;-72
2023/09/07 13:00:21;;;;;;;5.43;2.93;;;;;;;;;;5013565;28;20411;-72
2023/09/07 13:02:47;;;;;;;5.20;2.97;;;;;;;;;;4998424;28;20304;-72
2023/09/07 13:05:12;;;;;;;4.38;2.97;;;;;;;;;;5005073;28;20187;-72
2023/09/07 13:07:37;;;;;;;5.00;3.43;;;;;;;;;;5013288;28;20222;-72
2023/09/07 13:10:04;;;;;;;4.28;3.05;;;;;;;;;;5008704;28;20487;-72
2023/09/07 13:12:29;;;;;;;3.70;3.00;;;;;;;;;;5001819;28;20220;-72
2023/09/07 13:14:54;;;;;;;3.22;2.88;;;;;;;;;;5011014;28;20182;-72
2023/09/07 13:17:19;;;;;;;3.50;3.07;;;;;;;;;;5005011;28;20241;-72
2023/09/07 13:19:45;;;;;;;3.90;2.90;;;;;;;;;;5000041;28;20455;-72
2023/09/07 13:22:10;;;;;;;4.07;3.15;;;;;;;;;;5010023;28;20213;-72
2023/09/07 13:24:36;;;;;;;4.22;2.80;;;;;;;;;;4996601;28;20197;-72
2023/09/07 13:27:03;;;;;;;4.15;2.90;;;;;;;;;;5002213;28;20181;-72
2023/09/07 13:29:28;;;;;;;3.60;2.80;;;;;;;;;;5011269;28;20245;-71
2023/09/07 13:31:54;;;;;;;6.28;3.47;;;;;;;;;;5002402;28;20211;-71
2023/09/07 13:34:20;;;;;;;4.10;3.47;;;;;;;;;;4999786;28;20184;-71
2023/09/07 13:36:46;;;;;;;5.97;3.65;;;;;;;;;;4996948;28;20175;-71
2023/09/07 13:39:11;;;;;;;3.30;3.00;;;;;;;;;;5003776;28;20264;-72
2023/09/07 13:41:36;;;;;;;4.30;3.20;;;;;;;;;;5003713;28;20417;-72
2023/09/07 13:44:01;;;;;;;4.43;3.10;;;;;;;;;;5002898;28;20594;-72
2023/09/07 13:46:27;;;;;;;4.25;3.17;;;;;;;;;;4997396;28;20175;-72
2023/09/07 13:48:52;;;;;;;6.40;3.72;;;;;;;;;;5009813;28;20222;-71
2023/09/07 13:51:17;;;;;;;3.57;3.20;;;;;;;;;;5011966;28;20753;-73
2023/09/07 13:53:42;;;;;;;7.63;3.43;;;;;;;;;;5002379;28;21789;-72
2023/09/07 13:56:07;;;;;;;4.67;3.30;;;;;;;;;;5000032;28;20660;-72
2023/09/07 13:58:33;;;;;;;4.22;3.15;;;;;;;;;;5000860;28;20203;-72
2023/09/07 14:00:58;;;;;;;3.63;3.20;;;;;;;;;;5026107;28;20609;-72
2023/09/07 14:03:23;;;;;;;6.43;3.67;;;;;;;;;;5012179;28;20722;-72
2023/09/07 14:05:48;;;;;;;4.10;3.27;;;;;;;;;;5012716;28;20186;-72
2023/09/07 14:08:13;;;;;;;4.30;3.37;;;;;;;;;;5012965;28;20991;-72
2023/09/07 14:10:39;;;;;;;6.10;3.50;;;;;;;;;;5007576;28;20178;-72
2023/09/07 14:13:04;;;;;;;4.15;3.75;;;;;;;;;;5003748;28;20469;-72
2023/09/07 14:15:31;;;;;;;6.30;3.90;;;;;;;;;;5007496;28;20178;-70
2023/09/07 14:17:56;;;;;;;6.22;3.47;;;;;;;;;;4997440;28;20771;-71
2023/09/07 14:20:22;;;;;;;4.78;3.63;;;;;;;;;;5006213;28;20257;-71
2023/09/07 14:22:47;;;;;;;5.53;3.65;;;;;;;;;;4999525;28;20171;-72
2023/09/07 14:25:13;;;;;;;4.40;3.70;;;;;;;;;;5001549;28;20186;-71
2023/09/07 14:27:38;;;;;;;5.63;3.30;;;;;;;;;;5002735;28;20218;-71
2023/09/07 14:30:04;;;;;;;3.97;3.37;;;;;;;;;;5001047;28;20199;-71